createdAt,value
2022-11-07T00:01:20.720Z,23.50
2022-11-07T00:03:47.213Z,23.00
2022-11-07T00:06:14.574Z,23.50
2022-11-07T00:08:41.034Z,25.50
2022-11-07T00:11:07.496Z,24.00
2022-11-07T00:13:35.805Z,10.40
2022-11-07T00:16:02.247Z,29.50
2022-11-07T00:18:29.613Z,24.00
2022-11-07T00:20:56.067Z,26.00
2022-11-07T00:23:23.531Z,23.33
2022-11-07T00:25:49.971Z,21.50
2022-11-07T00:28:16.422Z,27.00
2022-11-07T00:30:42.893Z,25.50
2022-11-07T00:33:10.296Z,29.00
2022-11-07T00:35:37.668Z,27.00
2022-11-07T00:38:04.128Z,25.50
2022-11-07T00:40:30.609Z,24.00
2022-11-07T00:42:57.051Z,27.00
2022-11-07T00:45:24.430Z,28.50
2022-11-07T00:47:50.886Z,31.50
2022-11-07T00:50:18.261Z,28.50
2022-11-07T00:52:44.761Z,28.00
2022-11-07T00:55:11.204Z,24.00
2022-11-07T00:57:38.560Z,25.50
2022-11-07T01:00:05.984Z,30.50
2022-11-07T01:02:32.575Z,30.00
2022-11-07T01:04:59.184Z,31.00
2022-11-07T01:07:25.630Z,24.00
2022-11-07T01:09:52.073Z,25.50
2022-11-07T01:12:19.449Z,32.00
2022-11-07T01:14:45.915Z,28.50
2022-11-07T01:17:13.308Z,29.00
2022-11-07T01:19:40.672Z,22.33
2022-11-07T01:22:07.151Z,30.00
2022-11-07T01:24:33.657Z,28.00
2022-11-07T01:27:00.109Z,28.50
2022-11-07T01:29:26.561Z,27.00
2022-11-07T01:31:53.965Z,29.50
2022-11-07T01:34:21.349Z,24.50
2022-11-07T01:36:47.803Z,29.50
2022-11-07T01:39:15.184Z,23.50
2022-11-07T01:41:41.630Z,30.50
2022-11-07T01:44:09.022Z,28.50
2022-11-07T01:46:35.513Z,29.00
2022-11-07T01:49:01.981Z,22.00
2022-11-07T01:51:28.395Z,21.00
2022-11-07T01:53:54.853Z,26.00
2022-11-07T01:56:21.303Z,28.00
2022-11-07T01:58:47.825Z,27.00
2022-11-07T02:01:15.208Z,24.00
2022-11-07T02:03:41.720Z,27.00
2022-11-07T02:06:08.189Z,25.50
2022-11-07T02:08:34.645Z,26.00
2022-11-07T02:11:02.040Z,28.00
2022-11-07T02:13:28.502Z,28.00
2022-11-07T02:15:54.996Z,30.00
2022-11-07T02:18:21.441Z,29.50
2022-11-07T02:20:47.961Z,17.00
2022-11-07T02:23:15.573Z,25.00
2022-11-07T02:25:42.295Z,25.00
2022-11-07T02:28:08.779Z,24.00
2022-11-07T02:30:35.218Z,24.00
2022-11-07T02:33:02.598Z,28.00
2022-11-07T02:35:29.054Z,25.00
2022-11-07T02:37:56.421Z,22.00
2022-11-07T02:40:22.877Z,27.50
2022-11-07T02:42:49.323Z,22.50
2022-11-07T02:45:15.773Z,27.50
2022-11-07T02:47:43.170Z,25.67
2022-11-07T02:50:10.552Z,22.33
2022-11-07T02:52:36.983Z,23.00
2022-11-07T02:55:03.442Z,24.50
2022-11-07T02:57:30.821Z,26.33
2022-11-07T02:59:57.284Z,21.00
2022-11-07T03:02:24.766Z,22.00
2022-11-07T03:04:52.267Z,24.33
2022-11-07T03:07:18.722Z,24.50
2022-11-07T03:09:46.096Z,24.00
2022-11-07T03:12:13.495Z,26.50
2022-11-07T03:14:40.002Z,28.00
2022-11-07T03:17:06.489Z,27.50
2022-11-07T03:19:33.857Z,20.67
2022-11-07T03:22:00.333Z,24.00
2022-11-07T03:24:26.794Z,29.00
2022-11-07T03:26:54.193Z,29.50
2022-11-07T03:29:20.651Z,28.50
2022-11-07T03:31:48.026Z,25.00
2022-11-07T03:34:15.442Z,25.00
2022-11-07T03:36:41.915Z,29.00
2022-11-07T03:39:08.377Z,29.00
2022-11-07T03:41:34.816Z,24.50
2022-11-07T03:44:01.265Z,24.50
2022-11-07T03:46:27.722Z,28.50
2022-11-07T03:48:54.171Z,25.00
2022-11-07T03:51:21.590Z,23.50
2022-11-07T03:53:48.984Z,23.00
2022-11-07T03:56:15.468Z,23.00
2022-11-07T03:58:42.841Z,23.00
2022-11-07T04:01:09.275Z,21.00
2022-11-07T04:03:35.734Z,20.00
2022-11-07T04:06:03.110Z,23.67
2022-11-07T04:08:30.493Z,23.33
2022-11-07T04:10:56.948Z,21.00
2022-11-07T04:13:24.300Z,21.00
2022-11-07T04:15:50.759Z,22.00
2022-11-07T04:18:18.110Z,21.67
2022-11-07T04:20:45.445Z,21.00
2022-11-07T04:23:12.169Z,21.00
2022-11-07T04:25:39.758Z,19.67
2022-11-07T04:28:07.147Z,20.00
2022-11-07T04:30:33.579Z,18.00
2022-11-07T04:33:00.952Z,22.33
2022-11-07T04:35:27.394Z,20.50
2022-11-07T04:37:53.870Z,19.00
2022-11-07T04:40:21.212Z,20.67
2022-11-07T04:42:47.661Z,19.00
2022-11-07T04:45:14.074Z,18.00
2022-11-07T04:47:40.935Z,18.00
2022-11-07T04:50:07.459Z,16.00
2022-11-07T04:52:33.872Z,16.50
2022-11-07T04:55:00.320Z,21.00
2022-11-07T04:57:26.753Z,22.00
2022-11-07T04:59:54.129Z,21.00
2022-11-07T05:02:21.622Z,21.67
2022-11-07T05:04:48.170Z,20.00
2022-11-07T05:07:14.597Z,18.50
2022-11-07T05:09:41.943Z,19.67
2022-11-07T05:12:08.378Z,18.00
2022-11-07T05:14:35.722Z,18.33
2022-11-07T05:17:02.205Z,22.00
2022-11-07T05:19:28.655Z,22.50
2022-11-07T05:21:56.011Z,19.67
2022-11-07T05:24:22.476Z,21.00
2022-11-07T05:26:48.930Z,23.00
2022-11-07T05:29:16.555Z,19.67
2022-11-07T05:31:44.213Z,21.67
2022-11-07T05:34:14.489Z,21.50
2022-11-07T05:36:43.541Z,19.00
2022-11-07T05:39:09.959Z,18.50
2022-11-07T05:41:37.269Z,14.33
2022-11-07T05:44:04.690Z,20.00
2022-11-07T05:46:31.135Z,18.00
2022-11-07T05:49:01.156Z,19.00
2022-11-07T05:51:27.865Z,20.50
2022-11-07T05:53:54.300Z,18.00
2022-11-07T05:56:21.663Z,17.33
2022-11-07T05:58:48.119Z,23.00
2022-11-07T06:01:14.590Z,21.00
2022-11-07T06:03:41.948Z,18.67
2022-11-07T06:06:08.420Z,19.00
2022-11-07T06:08:35.794Z,19.00
2022-11-07T06:11:03.159Z,20.33
2022-11-07T06:13:30.573Z,14.67
2022-11-07T06:15:57.909Z,21.33
2022-11-07T06:18:24.372Z,17.50
2022-11-07T06:20:51.737Z,20.67
2022-11-07T06:23:19.411Z,20.00
2022-11-07T06:25:46.880Z,18.67
2022-11-07T06:28:13.403Z,20.00
2022-11-07T06:30:40.755Z,21.33
2022-11-07T06:33:07.181Z,16.50
2022-11-07T06:35:33.661Z,22.50
2022-11-07T06:38:01.016Z,21.00
2022-11-07T06:40:28.362Z,17.67
2022-11-07T06:42:55.718Z,17.00
2022-11-07T06:45:22.176Z,21.50
2022-11-07T06:47:49.452Z,15.00
2022-11-07T06:50:15.900Z,20.00
2022-11-07T06:52:43.260Z,17.00
2022-11-07T06:55:11.560Z,12.80
2022-11-07T06:57:37.981Z,15.00
2022-11-07T07:00:04.593Z,18.00
2022-11-07T07:02:56.975Z,17.00
2022-11-07T07:05:21.241Z,14.33
2022-11-07T07:07:47.839Z,15.00
2022-11-07T07:10:14.273Z,15.50
2022-11-07T07:12:41.517Z,13.67
2022-11-07T07:15:08.759Z,14.33
2022-11-07T07:17:37.095Z,15.40
2022-11-07T07:20:04.345Z,14.33
2022-11-07T07:22:32.643Z,14.00
2022-11-07T07:24:59.201Z,14.50
2022-11-07T07:27:26.459Z,14.67
2022-11-07T07:29:53.711Z,15.00
2022-11-07T07:32:20.186Z,16.00
2022-11-07T07:34:48.473Z,13.40
2022-11-07T07:37:14.891Z,16.00
2022-11-07T07:39:41.328Z,12.00
2022-11-07T07:42:09.624Z,16.00
2022-11-07T07:44:36.812Z,13.67
2022-11-07T07:47:10.051Z,13.40
2022-11-07T07:52:22.939Z,14.00
2022-11-07T07:54:52.998Z,14.86
2022-11-07T07:57:21.279Z,11.60
2022-11-07T07:59:48.515Z,13.67
2022-11-07T08:02:15.092Z,14.00
2022-11-07T08:04:45.030Z,14.00
2022-11-07T08:07:12.320Z,13.00
2022-11-07T08:09:38.738Z,15.00
2022-11-07T08:12:06.053Z,17.67
2022-11-07T08:14:32.458Z,16.50
2022-11-07T08:16:58.889Z,14.50
2022-11-07T08:19:25.296Z,15.00
2022-11-07T08:21:52.578Z,14.00
2022-11-07T08:24:19.900Z,14.00
2022-11-07T08:26:46.308Z,17.00
2022-11-07T08:29:12.741Z,18.50
2022-11-07T08:31:40.119Z,18.33
2022-11-07T08:34:07.540Z,15.67
2022-11-07T08:36:35.009Z,15.67
2022-11-07T08:39:02.345Z,17.00
2022-11-07T08:41:28.753Z,18.50
2022-11-07T08:43:56.111Z,20.67
2022-11-07T08:46:23.397Z,18.00
2022-11-07T08:48:49.862Z,21.00
2022-11-07T08:51:16.294Z,22.50
2022-11-07T08:53:43.630Z,19.00
2022-11-07T08:56:10.048Z,20.50
2022-11-07T08:58:37.500Z,23.00
2022-11-07T09:01:04.009Z,22.00
2022-11-07T09:03:45.171Z,22.00
2022-11-07T09:06:15.077Z,19.67
2022-11-07T09:08:42.500Z,20.00
2022-11-07T09:11:08.929Z,20.50
2022-11-07T09:13:35.372Z,20.00
2022-11-07T09:16:01.800Z,19.00
2022-11-07T09:18:29.045Z,14.00
2022-11-07T09:20:55.499Z,22.00
2022-11-07T09:23:21.961Z,19.50
2022-11-07T09:25:49.327Z,17.33
2022-11-07T09:28:15.762Z,19.00
2022-11-07T09:30:43.152Z,18.00
2022-11-07T09:33:09.597Z,19.00
2022-11-07T09:35:36.028Z,16.00
2022-11-07T09:38:02.451Z,17.00
2022-11-07T09:40:28.881Z,14.00
2022-11-07T09:42:56.159Z,18.00
2022-11-07T09:45:23.395Z,17.00
2022-11-07T09:47:50.645Z,14.67
2022-11-07T09:50:17.996Z,18.67
2022-11-07T09:52:45.263Z,15.00
2022-11-07T09:55:12.598Z,14.33
2022-11-07T09:57:39.890Z,15.00
2022-11-07T10:00:07.268Z,13.67
2022-11-07T10:02:34.564Z,15.00
2022-11-07T10:05:01.870Z,15.67
2022-11-07T10:07:29.280Z,17.00
2022-11-07T10:09:55.736Z,18.00
2022-11-07T10:12:22.985Z,17.00
2022-11-07T10:14:50.252Z,14.67
2022-11-07T10:17:17.579Z,13.00
2022-11-07T10:19:44.847Z,17.33
2022-11-07T10:22:13.140Z,15.60
2022-11-07T10:24:40.411Z,15.00
2022-11-07T10:27:07.679Z,17.00
2022-11-07T10:29:34.103Z,11.50
2022-11-07T10:32:00.611Z,16.00
2022-11-07T10:34:26.999Z,14.50
2022-11-07T10:36:53.383Z,13.00
2022-11-07T10:39:19.839Z,14.00
2022-11-07T10:41:46.375Z,11.50
2022-11-07T10:44:13.634Z,12.33
2022-11-07T10:46:43.602Z,14.43
2022-11-07T10:49:09.973Z,11.50
2022-11-07T10:51:36.466Z,14.00
2022-11-07T10:54:02.952Z,13.00
2022-11-07T10:56:31.215Z,12.80
2022-11-07T10:58:57.700Z,13.00
2022-11-07T11:01:25.060Z,15.00
2022-11-07T11:03:52.606Z,13.00
2022-11-07T11:06:19.901Z,14.33
2022-11-07T11:08:48.186Z,12.60
2022-11-07T11:11:14.628Z,14.50
2022-11-07T11:13:41.886Z,15.67
2022-11-07T11:16:09.196Z,11.00
2022-11-07T11:21:23.613Z,14.00
2022-11-07T11:23:50.857Z,14.00
2022-11-07T11:26:18.066Z,12.67
2022-11-07T11:28:44.498Z,17.00
2022-11-07T11:31:11.798Z,15.00
2022-11-07T11:33:39.102Z,15.00
2022-11-07T11:36:05.574Z,16.00
2022-11-07T11:38:32.077Z,15.50
2022-11-07T11:41:06.091Z,16.67
2022-11-07T11:43:35.090Z,13.00
2022-11-07T11:46:02.345Z,15.67
2022-11-07T11:48:29.614Z,15.67
2022-11-07T11:50:56.949Z,14.00
2022-11-07T11:53:23.356Z,13.00
2022-11-07T11:55:52.206Z,16.50
2022-11-07T11:58:18.882Z,13.50
2022-11-07T12:00:45.269Z,14.00
2022-11-07T12:03:12.526Z,13.00
2022-11-07T12:05:39.856Z,16.00
2022-11-07T12:08:07.248Z,20.33
2022-11-07T12:10:33.653Z,17.00
2022-11-07T12:13:00.164Z,18.00
2022-11-07T12:15:27.513Z,17.00
2022-11-07T12:17:54.791Z,15.67
2022-11-07T12:20:21.230Z,16.00
2022-11-07T12:22:47.703Z,13.00
2022-11-07T12:25:14.160Z,17.00
2022-11-07T12:27:41.395Z,14.67
2022-11-07T12:30:07.840Z,15.50
2022-11-07T12:32:36.133Z,14.20
2022-11-07T12:35:04.489Z,14.20
2022-11-07T12:37:31.729Z,14.00
2022-11-07T12:39:58.960Z,13.67
2022-11-07T12:42:26.207Z,14.00
2022-11-07T12:44:53.473Z,14.00
2022-11-07T12:47:19.863Z,12.00
2022-11-07T12:49:48.182Z,16.00
2022-11-07T12:52:14.618Z,13.00
2022-11-07T12:54:42.940Z,14.00
2022-11-07T12:57:09.362Z,13.00
2022-11-07T12:59:36.685Z,13.67
2022-11-07T13:02:04.073Z,13.00
2022-11-07T13:04:32.420Z,12.00
2022-11-07T13:07:00.689Z,11.20
2022-11-07T13:09:27.180Z,12.50
2022-11-07T13:11:56.352Z,13.17
2022-11-07T13:14:24.508Z,13.33
2022-11-07T13:16:51.193Z,11.50
2022-11-07T13:19:19.531Z,12.60
2022-11-07T13:21:46.825Z,14.00
2022-11-07T13:24:13.353Z,16.00
2022-11-07T13:26:47.663Z,14.00
2022-11-07T13:29:16.554Z,12.40
2022-11-07T13:31:43.033Z,11.50
2022-11-07T13:34:11.298Z,12.80
2022-11-07T13:36:37.714Z,11.50
2022-11-07T13:39:04.968Z,12.33
2022-11-07T13:41:33.290Z,15.00
2022-11-07T13:44:10.657Z,13.80
2022-11-07T13:46:38.959Z,12.40
2022-11-07T13:49:07.299Z,14.80
2022-11-07T13:51:34.533Z,12.00
2022-11-07T13:54:02.827Z,12.20
2022-11-07T13:56:30.068Z,11.67
2022-11-07T13:58:56.569Z,13.00
2022-11-07T14:01:23.104Z,16.00
2022-11-07T14:03:49.627Z,14.00
2022-11-07T14:06:16.848Z,12.67
2022-11-07T14:08:46.031Z,11.67
2022-11-07T14:11:14.328Z,12.20
2022-11-07T14:13:41.726Z,12.00
2022-11-07T14:16:08.397Z,12.50
2022-11-07T14:18:37.565Z,13.17
2022-11-07T14:21:06.745Z,11.50
2022-11-07T14:23:33.173Z,12.00
2022-11-07T14:26:01.476Z,13.40
2022-11-07T14:28:29.764Z,11.20
2022-11-07T14:30:56.209Z,10.00
2022-11-07T14:33:24.526Z,13.20
2022-11-07T14:35:51.195Z,13.50
2022-11-07T14:38:18.088Z,12.00
2022-11-07T14:40:44.811Z,14.00
2022-11-07T14:43:12.027Z,11.67
2022-11-07T14:46:10.712Z,15.80
2022-11-07T14:48:27.561Z,13.00
2022-11-07T14:50:55.846Z,12.40
2022-11-07T14:53:22.241Z,9.33
2022-11-07T14:55:48.754Z,13.00
2022-11-07T14:58:16.233Z,11.33
2022-11-07T15:00:42.845Z,12.00
2022-11-07T15:03:09.286Z,11.00
2022-11-07T15:05:37.573Z,13.00
2022-11-07T15:08:04.066Z,13.00
2022-11-07T15:10:32.356Z,13.60
2022-11-07T15:12:59.627Z,16.33
2022-11-07T15:15:26.077Z,12.50
2022-11-07T15:17:52.561Z,14.00
2022-11-07T15:20:19.833Z,14.00
2022-11-07T15:22:46.311Z,12.50
2022-11-07T15:25:14.649Z,12.60
2022-11-07T15:27:42.944Z,14.00
2022-11-07T15:30:10.164Z,11.67
2022-11-07T15:32:37.423Z,13.33
2022-11-07T15:37:51.079Z,14.00
2022-11-07T15:40:18.361Z,11.67
2022-11-07T15:42:44.854Z,11.50
2022-11-07T15:45:11.292Z,14.00
2022-11-07T15:47:39.560Z,10.60
2022-11-07T15:50:06.864Z,13.33
2022-11-07T15:52:34.103Z,14.67
2022-11-07T15:55:03.276Z,12.50
2022-11-07T15:57:32.470Z,11.33
2022-11-07T15:59:58.915Z,12.50
2022-11-07T16:02:28.219Z,12.67
2022-11-07T16:04:56.598Z,11.00
2022-11-07T16:07:23.898Z,16.33
2022-11-07T16:12:47.097Z,17.40
2022-11-07T16:15:14.390Z,14.67
2022-11-07T16:17:42.693Z,12.20
2022-11-07T16:20:09.986Z,13.67
2022-11-07T16:22:36.480Z,16.00
2022-11-07T16:27:57.661Z,12.00
2022-11-07T16:30:24.182Z,13.50
2022-11-07T16:32:51.558Z,20.67
2022-11-07T16:35:17.994Z,16.50
2022-11-07T16:37:45.238Z,14.33
2022-11-07T16:43:07.540Z,16.33
2022-11-07T16:45:34.050Z,20.00
2022-11-07T16:48:01.356Z,15.00
2022-11-07T16:50:28.617Z,16.00
2022-11-07T16:52:55.881Z,16.00
2022-11-07T16:58:08.031Z,13.67
2022-11-07T17:00:34.565Z,14.00
2022-11-07T17:03:01.332Z,12.00
2022-11-07T17:05:27.918Z,16.00
2022-11-07T17:07:57.057Z,10.67
2022-11-07T17:13:20.532Z,15.50
2022-11-07T17:15:47.760Z,13.00
2022-11-07T17:18:15.109Z,15.67
2022-11-07T17:20:50.983Z,14.00
2022-11-07T17:23:18.272Z,12.50
2022-11-07T17:28:38.713Z,12.50
2022-11-07T17:31:07.013Z,12.60
2022-11-07T17:33:36.176Z,10.50
2022-11-07T17:36:05.382Z,14.00
2022-11-07T17:38:33.702Z,13.00
2022-11-07T17:43:53.954Z,13.00
2022-11-07T17:46:20.560Z,10.50
2022-11-07T17:48:47.476Z,11.00
2022-11-07T17:51:16.697Z,10.33
2022-11-07T17:53:43.106Z,10.00
2022-11-07T17:58:54.128Z,7.67
2022-11-07T18:01:20.488Z,8.33
2022-11-07T18:03:46.847Z,7.00
2022-11-07T18:06:13.186Z,5.00
2022-11-07T18:08:51.878Z,6.00
2022-11-07T18:14:02.981Z,8.00
2022-11-07T18:16:29.382Z,8.67
2022-11-07T18:18:55.726Z,7.00
2022-11-07T18:21:22.067Z,5.00
2022-11-07T18:23:48.402Z,4.00
2022-11-07T18:29:10.225Z,7.50
2022-11-07T18:31:36.767Z,7.00
2022-11-07T18:34:03.125Z,5.00
2022-11-07T18:36:29.474Z,5.67
2022-11-07T18:38:55.824Z,3.33
2022-11-07T18:44:07.107Z,9.50
2022-11-07T18:46:33.432Z,6.33
2022-11-07T18:48:59.788Z,6.00
2022-11-07T18:51:26.105Z,6.00
2022-11-07T18:53:52.449Z,5.00
2022-11-07T18:59:02.808Z,7.67
2022-11-07T19:01:29.300Z,7.67
2022-11-07T19:03:55.769Z,7.33
2022-11-07T19:06:22.142Z,7.33
2022-11-07T19:08:48.590Z,6.00
2022-11-07T19:14:08.750Z,6.00
2022-11-07T19:16:35.086Z,5.67
2022-11-07T19:19:01.451Z,5.00
2022-11-07T19:21:28.001Z,6.67
2022-11-07T19:23:54.322Z,6.00
2022-11-07T19:29:06.221Z,8.25
2022-11-07T19:31:34.909Z,7.00
2022-11-07T19:34:01.535Z,5.33
2022-11-07T19:36:27.890Z,6.00
2022-11-07T19:38:54.417Z,6.00
2022-11-07T19:44:05.542Z,7.67
2022-11-07T19:46:31.869Z,6.33
2022-11-07T19:48:58.236Z,6.00
2022-11-07T19:51:24.568Z,5.67
2022-11-07T19:53:50.917Z,5.00
2022-11-07T19:59:11.122Z,5.00
2022-11-07T20:01:37.618Z,6.00
2022-11-07T20:04:04.060Z,7.00
2022-11-07T20:06:30.391Z,6.00
2022-11-07T20:08:56.740Z,5.00
2022-11-07T20:14:17.775Z,3.25
2022-11-07T20:16:44.125Z,5.33
2022-11-07T20:19:10.501Z,5.00
2022-11-07T20:21:36.862Z,5.33
2022-11-07T20:24:04.069Z,7.00
2022-11-07T20:29:24.244Z,6.67
2022-11-07T20:31:50.902Z,6.33
2022-11-07T20:34:18.102Z,6.50
2022-11-07T20:36:44.424Z,7.33
2022-11-07T20:39:10.784Z,8.00
2022-11-07T20:44:24.806Z,6.50
2022-11-07T20:46:51.179Z,5.33
2022-11-07T20:49:17.541Z,7.00
2022-11-07T20:51:44.752Z,8.50
2022-11-07T20:54:12.015Z,7.00
2022-11-07T20:56:38.366Z,8.00
2022-11-07T20:59:05.563Z,8.00
2022-11-07T21:01:32.146Z,7.00
2022-11-07T21:03:58.615Z,6.33
2022-11-07T21:06:24.967Z,6.33
2022-11-07T21:08:51.337Z,7.33
2022-11-07T21:11:18.524Z,7.00
2022-11-07T21:13:49.728Z,8.00
2022-11-07T21:16:19.209Z,6.00
2022-11-07T21:18:45.539Z,5.00
2022-11-07T21:21:11.899Z,5.00
2022-11-07T21:23:38.248Z,4.00
2022-11-07T21:26:04.786Z,6.00
2022-11-07T21:28:31.107Z,6.00
2022-11-07T21:30:57.436Z,6.00
2022-11-07T21:33:23.772Z,6.33
2022-11-07T21:35:50.082Z,7.67
2022-11-07T21:38:16.428Z,7.00
2022-11-07T21:40:42.776Z,6.33
2022-11-07T21:43:09.996Z,7.50
2022-11-07T21:45:36.285Z,8.00
2022-11-07T21:48:02.650Z,8.00
2022-11-07T21:50:44.151Z,7.25
2022-11-07T21:53:11.306Z,6.33
2022-11-07T21:55:37.643Z,7.67
2022-11-07T21:58:03.989Z,8.00
2022-11-07T22:00:35.543Z,7.67
2022-11-07T22:03:02.422Z,7.00
2022-11-07T22:05:28.784Z,7.00
2022-11-07T22:07:55.965Z,7.50
2022-11-07T22:10:22.318Z,7.00
2022-11-07T22:12:51.426Z,8.67
2022-11-07T22:15:18.630Z,6.25
2022-11-07T22:17:44.971Z,8.00
2022-11-07T22:20:11.403Z,9.67
2022-11-07T22:22:37.728Z,6.33
2022-11-07T22:25:05.949Z,7.60
2022-11-07T22:27:32.299Z,8.00
2022-11-07T22:32:52.541Z,9.50
2022-11-07T22:35:19.797Z,9.75
2022-11-07T22:37:46.996Z,9.00
2022-11-07T22:40:19.907Z,7.00
2022-11-07T22:42:46.782Z,10.50
2022-11-07T22:45:13.166Z,8.00
2022-11-07T22:47:39.542Z,9.67
2022-11-07T22:50:05.903Z,7.67
2022-11-07T22:52:33.166Z,8.00
2022-11-07T22:55:00.360Z,7.25
2022-11-07T22:57:26.694Z,7.00
2022-11-07T23:02:47.087Z,8.67
2022-11-07T23:05:14.370Z,8.00
2022-11-07T23:07:40.714Z,8.00
2022-11-07T23:10:07.093Z,8.67
2022-11-07T23:12:34.303Z,9.50
2022-11-07T23:17:54.310Z,6.00
2022-11-07T23:20:20.687Z,8.00
2022-11-07T23:22:47.000Z,8.67
2022-11-07T23:25:14.240Z,7.75
2022-11-07T23:27:40.656Z,8.33
2022-11-07T23:33:00.914Z,7.00
2022-11-07T23:35:30.091Z,7.00
2022-11-07T23:37:56.444Z,8.00
2022-11-07T23:40:22.775Z,7.00
2022-11-07T23:42:49.973Z,8.00
2022-11-07T23:48:00.138Z,6.67
2022-11-07T23:50:26.521Z,10.50
2022-11-07T23:52:52.901Z,8.67
2022-11-07T23:55:19.239Z,8.00
2022-11-07T23:57:45.597Z,5.00
